Time;durP1;ratioP1;P1;durP2;ratioP2;P2;SDS_P1;SDS_P2;PMS_P1;PMS_P2;Temp;Humidity;BMP_temperature;BMP_pressure;BME280_temperature;BME280_humidity;BME280_pressure;Samples;Min_cycle;Max_cycle;Signal;HPM_P1;HPM_P2
2022/05/25 00:01:00;;;;;;;9.90;8.30;;;;;;;;;;5052329;28;20826;-66
2022/05/25 00:03:26;;;;;;;10.00;7.60;;;;;;;;;;5058578;28;20143;-66
2022/05/25 00:05:53;;;;;;;12.88;8.48;;;;;;;;;;5055424;28;20049;-66
2022/05/25 00:08:20;;;;;;;9.80;7.88;;;;;;;;;;5062319;28;20108;-66
2022/05/25 00:10:46;;;;;;;11.20;7.93;;;;;;;;;;5061467;28;20518;-66
2022/05/25 00:13:12;;;;;;;10.73;8.25;;;;;;;;;;5058621;28;20491;-66
2022/05/25 00:15:39;;;;;;;9.10;7.60;;;;;;;;;;5066935;28;20136;-66
2022/05/25 00:18:05;;;;;;;9.20;7.97;;;;;;;;;;5053018;28;20159;-66
2022/05/25 00:20:32;;;;;;;11.10;8.35;;;;;;;;;;5061350;28;20171;-66
2022/05/25 00:22:58;;;;;;;12.95;8.20;;;;;;;;;;5056957;28;20084;-65
2022/05/25 00:25:29;;;;;;;9.68;8.25;;;;;;;;;;5061689;28;20136;-65
2022/05/25 00:27:56;;;;;;;10.80;8.35;;;;;;;;;;5056223;28;20215;-65
2022/05/25 00:30:24;;;;;;;12.20;8.43;;;;;;;;;;5065931;28;20080;-66
2022/05/25 00:32:50;;;;;;;10.65;7.38;;;;;;;;;;5061153;28;20044;-67
2022/05/25 00:35:18;;;;;;;13.55;8.48;;;;;;;;;;5047854;28;20160;-66
2022/05/25 00:37:45;;;;;;;11.90;8.83;;;;;;;;;;5060843;28;20075;-66
2022/05/25 00:40:34;;;;;;;11.05;8.30;;;;;;;;;;5039003;28;20140;-66
2022/05/25 00:43:01;;;;;;;12.60;8.60;;;;;;;;;;5053618;28;20174;-65
2022/05/25 00:45:30;;;;;;;12.18;8.55;;;;;;;;;;5051164;28;20067;-65
2022/05/25 00:47:56;;;;;;;;;;;;;;;;;;5065164;28;20555;-66
2022/05/25 00:50:23;;;;;;;11.85;8.77;;;;;;;;;;5062776;28;19925;-65
2022/05/25 00:52:50;;;;;;;11.48;8.88;;;;;;;;;;5055301;28;20135;-65
2022/05/25 00:55:26;;;;;;;12.27;8.20;;;;;;;;;;5061389;28;20092;-66
2022/05/25 00:57:55;;;;;;;11.25;8.75;;;;;;;;;;5049889;28;20595;-66
2022/05/25 01:00:22;;;;;;;10.25;8.73;;;;;;;;;;5059071;28;20059;-67
2022/05/25 01:02:51;;;;;;;11.30;9.23;;;;;;;;;;5054224;28;20103;-66
2022/05/25 01:05:23;;;;;;;11.30;8.02;;;;;;;;;;5060916;28;20142;-66
2022/05/25 01:08:08;;;;;;;9.18;7.28;;;;;;;;;;5060832;28;20059;-66
2022/05/25 01:10:56;;;;;;;12.07;7.32;;;;;;;;;;5062612;28;20124;-66
2022/05/25 01:13:25;;;;;;;8.97;7.73;;;;;;;;;;5057244;28;20041;-66
2022/05/25 01:16:04;;;;;;;10.48;7.65;;;;;;;;;;5055951;28;20059;-65
2022/05/25 01:18:38;;;;;;;8.68;6.82;;;;;;;;;;5060898;28;20128;-66
2022/05/25 01:21:12;;;;;;;12.10;7.25;;;;;;;;;;5056025;28;20055;-65
2022/05/25 01:23:57;;;;;;;8.43;6.70;;;;;;;;;;5061082;28;20131;-65
2022/05/25 01:26:43;;;;;;;10.43;7.22;;;;;;;;;;5048843;28;20056;-65
2022/05/25 01:29:16;;;;;;;13.85;7.65;;;;;;;;;;5051054;28;20140;-66
2022/05/25 01:31:49;;;;;;;8.95;7.18;;;;;;;;;;5067594;28;20048;-65
2022/05/25 01:34:20;;;;;;;9.43;6.25;;;;;;;;;;5061536;28;20048;-65
2022/05/25 01:36:49;;;;;;;8.77;6.78;;;;;;;;;;5047731;28;20053;-65
2022/05/25 01:39:17;;;;;;;10.65;7.05;;;;;;;;;;5063505;28;20046;-65
2022/05/25 01:41:54;;;;;;;11.10;7.22;;;;;;;;;;5060141;28;20053;-66
2022/05/25 01:44:26;;;;;;;10.45;7.60;;;;;;;;;;5035384;28;20329;-65
2022/05/25 01:46:57;;;;;;;8.70;6.47;;;;;;;;;;5062760;28;20060;-66
2022/05/25 01:49:27;;;;;;;8.10;6.82;;;;;;;;;;5071085;28;20465;-65
2022/05/25 01:52:00;;;;;;;10.23;7.80;;;;;;;;;;5075407;28;20463;-65
2022/05/25 01:54:29;;;;;;;9.13;6.70;;;;;;;;;;5057195;28;20080;-65
2022/05/25 01:56:55;;;;;;;;;;;;;;;;;;5069234;28;20048;-65
2022/05/25 01:59:22;;;;;;;8.70;6.70;;;;;;;;;;5065397;28;20044;-64
2022/05/25 02:01:50;;;;;;;10.88;7.70;;;;;;;;;;5064280;28;20040;-65
2022/05/25 02:04:22;;;;;;;10.00;7.63;;;;;;;;;;5065063;28;20593;-65
2022/05/25 02:06:57;;;;;;;10.98;6.93;;;;;;;;;;5065879;28;20117;-65
2022/05/25 02:09:42;;;;;;;10.32;6.68;;;;;;;;;;5060231;28;20687;-65
2022/05/25 02:12:27;;;;;;;11.80;7.07;;;;;;;;;;5059290;28;20397;-65
2022/05/25 02:14:54;;;;;;;10.10;7.03;;;;;;;;;;5064855;28;20471;-66
2022/05/25 02:17:32;;;;;;;9.38;7.22;;;;;;;;;;5058034;28;20758;-65
2022/05/25 02:20:00;;;;;;;14.15;7.38;;;;;;;;;;5051885;28;20048;-66
2022/05/25 02:22:34;;;;;;;10.07;7.20;;;;;;;;;;5052954;28;20041;-65
2022/05/25 02:25:08;;;;;;;11.30;7.35;;;;;;;;;;5063311;28;20067;-66
2022/05/25 02:27:34;;;;;;;10.80;7.55;;;;;;;;;;5063596;28;20049;-65
2022/05/25 02:30:03;;;;;;;14.88;7.00;;;;;;;;;;5062498;28;20136;-65
2022/05/25 02:32:35;;;;;;;9.55;7.20;;;;;;;;;;5071564;28;20063;-64
2022/05/25 02:35:02;;;;;;;12.93;7.50;;;;;;;;;;5056679;28;20052;-65
2022/05/25 02:37:30;;;;;;;10.55;7.03;;;;;;;;;;5064096;28;20040;-65
2022/05/25 02:39:58;;;;;;;12.52;7.10;;;;;;;;;;5068223;28;20058;-65
2022/05/25 02:42:25;;;;;;;12.55;7.38;;;;;;;;;;5051817;28;20044;-66
2022/05/25 02:44:51;;;;;;;15.05;7.57;;;;;;;;;;5059446;28;20385;-65
2022/05/25 02:47:18;;;;;;;11.85;7.15;;;;;;;;;;5053823;28;20156;-65
2022/05/25 02:49:45;;;;;;;10.25;7.05;;;;;;;;;;5068450;28;20036;-65
2022/05/25 02:52:12;;;;;;;9.60;7.40;;;;;;;;;;5071361;28;20048;-65
2022/05/25 02:54:39;;;;;;;11.35;7.28;;;;;;;;;;5064978;28;20051;-63
2022/05/25 02:57:06;;;;;;;11.82;7.18;;;;;;;;;;5057048;28;20052;-65
2022/05/25 02:59:32;;;;;;;12.18;6.90;;;;;;;;;;5055347;28;20056;-65
2022/05/25 03:02:01;;;;;;;11.35;6.63;;;;;;;;;;5059090;28;20149;-65
2022/05/25 03:04:27;;;;;;;12.60;7.68;;;;;;;;;;5062485;28;20889;-65
2022/05/25 03:06:54;;;;;;;12.35;7.22;;;;;;;;;;5064393;28;20057;-65
2022/05/25 03:09:20;;;;;;;11.13;7.63;;;;;;;;;;5058955;28;20141;-65
2022/05/25 03:11:47;;;;;;;11.38;6.63;;;;;;;;;;5058503;28;20046;-65
2022/05/25 03:14:13;;;;;;;12.20;7.72;;;;;;;;;;5054725;28;20052;-65
2022/05/25 03:16:40;;;;;;;11.55;7.10;;;;;;;;;;5062748;28;20110;-65
2022/05/25 03:19:07;;;;;;;10.15;6.65;;;;;;;;;;5057437;28;20140;-66
2022/05/25 03:21:33;;;;;;;11.48;7.63;;;;;;;;;;5059662;28;20278;-65
2022/05/25 03:23:59;;;;;;;11.30;7.25;;;;;;;;;;5063272;28;20659;-65
2022/05/25 03:26:26;;;;;;;12.00;7.25;;;;;;;;;;5050419;28;20549;-66
2022/05/25 03:28:52;;;;;;;12.07;7.60;;;;;;;;;;5059281;28;20090;-66
2022/05/25 03:31:18;;;;;;;12.23;7.55;;;;;;;;;;5056061;28;20064;-66
2022/05/25 03:33:45;;;;;;;11.02;7.18;;;;;;;;;;5062676;28;20056;-67
2022/05/25 03:36:11;;;;;;;15.57;7.85;;;;;;;;;;5059719;28;20059;-65
2022/05/25 03:38:37;;;;;;;11.95;7.18;;;;;;;;;;5052545;28;20088;-65
2022/05/25 03:41:04;;;;;;;11.13;7.60;;;;;;;;;;5058454;28;20110;-67
2022/05/25 03:43:32;;;;;;;13.93;7.38;;;;;;;;;;5055383;28;20052;-66
2022/05/25 03:45:58;;;;;;;14.38;8.15;;;;;;;;;;5062436;28;20161;-66
2022/05/25 03:48:25;;;;;;;10.88;7.72;;;;;;;;;;5055555;28;20102;-66
2022/05/25 03:50:51;;;;;;;12.95;7.75;;;;;;;;;;5062989;28;20409;-66
2022/05/25 03:53:18;;;;;;;13.30;8.02;;;;;;;;;;5071885;28;20052;-65
2022/05/25 03:55:47;;;;;;;12.02;7.90;;;;;;;;;;5055221;28;20055;-65
2022/05/25 03:58:14;;;;;;;10.43;7.40;;;;;;;;;;5068343;28;20052;-65
2022/05/25 04:00:40;;;;;;;11.65;7.97;;;;;;;;;;5075412;28;20122;-66
2022/05/25 04:03:09;;;;;;;11.63;7.25;;;;;;;;;;5082570;28;20420;-64
2022/05/25 04:05:36;;;;;;;16.98;7.88;;;;;;;;;;5056551;28;20504;-66
2022/05/25 04:08:02;;;;;;;10.55;7.38;;;;;;;;;;5054611;28;20052;-65
2022/05/25 04:10:30;;;;;;;12.85;7.53;;;;;;;;;;5060872;28;20045;-66
2022/05/25 04:12:56;;;;;;;12.90;8.20;;;;;;;;;;5056818;28;20051;-66
2022/05/25 04:15:26;;;;;;;12.93;8.40;;;;;;;;;;5062629;28;20833;-66
2022/05/25 04:17:53;;;;;;;13.20;7.90;;;;;;;;;;5056012;28;20056;-65
2022/05/25 04:20:19;;;;;;;12.75;7.30;;;;;;;;;;5055645;28;20175;-67
2022/05/25 04:22:46;;;;;;;13.23;7.75;;;;;;;;;;5055722;28;20080;-66
2022/05/25 04:25:14;;;;;;;14.98;9.00;;;;;;;;;;5062320;28;20135;-66
2022/05/25 04:27:43;;;;;;;11.43;8.93;;;;;;;;;;5062097;28;20139;-66
2022/05/25 04:30:11;;;;;;;12.82;9.32;;;;;;;;;;5056717;28;20291;-65
2022/05/25 04:32:37;;;;;;;17.20;9.45;;;;;;;;;;5060658;28;20098;-66
2022/05/25 04:35:03;;;;;;;13.13;9.90;;;;;;;;;;5051299;28;20059;-65
2022/05/25 04:40:16;;;;;;;14.25;9.48;;;;;;;;;;5053812;28;20451;-65
2022/05/25 04:42:43;;;;;;;15.53;9.70;;;;;;;;;;5057152;28;20143;-66
2022/05/25 04:45:10;;;;;;;15.48;10.05;;;;;;;;;;5061828;28;20056;-65
2022/05/25 04:47:37;;;;;;;16.25;11.07;;;;;;;;;;5067680;28;20072;-65
2022/05/25 04:50:07;;;;;;;14.68;9.95;;;;;;;;;;5062259;28;20163;-65
2022/05/25 04:52:34;;;;;;;17.20;10.70;;;;;;;;;;5054800;28;20056;-66
2022/05/25 04:55:01;;;;;;;13.23;9.32;;;;;;;;;;5060851;28;20056;-65
2022/05/25 04:57:27;;;;;;;26.17;10.98;;;;;;;;;;5050908;28;20163;-65
2022/05/25 04:59:55;;;;;;;15.68;10.65;;;;;;;;;;5057071;28;20654;-66
2022/05/25 05:02:21;;;;;;;16.50;10.48;;;;;;;;;;5051462;28;20416;-66
2022/05/25 05:04:48;;;;;;;13.48;9.32;;;;;;;;;;5060091;28;20044;-65
2022/05/25 05:07:14;;;;;;;17.05;11.05;;;;;;;;;;5060911;28;20049;-66
2022/05/25 05:09:42;;;;;;;16.20;10.30;;;;;;;;;;5055039;28;20127;-65
2022/05/25 05:12:09;;;;;;;14.07;9.73;;;;;;;;;;5055872;28;20572;-66
2022/05/25 05:14:37;;;;;;;13.23;9.52;;;;;;;;;;5043721;28;20879;-66
2022/05/25 05:17:05;;;;;;;15.63;9.02;;;;;;;;;;5060660;28;20121;-66
2022/05/25 05:19:31;;;;;;;18.73;9.53;;;;;;;;;;5059027;28;20058;-66
2022/05/25 05:21:57;;;;;;;13.68;9.82;;;;;;;;;;5050458;28;20143;-66
2022/05/25 05:24:24;;;;;;;17.25;9.25;;;;;;;;;;5050988;28;20152;-66
2022/05/25 05:26:51;;;;;;;18.55;10.40;;;;;;;;;;5052659;28;20235;-66
2022/05/25 05:29:17;;;;;;;14.40;9.30;;;;;;;;;;5061769;28;20050;-66
2022/05/25 05:31:44;;;;;;;11.73;8.23;;;;;;;;;;5054010;28;20151;-66
2022/05/25 05:34:11;;;;;;;13.80;8.23;;;;;;;;;;5060448;28;20709;-66
2022/05/25 05:36:49;;;;;;;15.30;8.43;;;;;;;;;;5052936;28;20684;-65
2022/05/25 05:39:17;;;;;;;16.98;8.27;;;;;;;;;;5054426;28;20850;-66
2022/05/25 05:41:49;;;;;;;15.57;8.13;;;;;;;;;;5056698;28;20420;-66
2022/05/25 05:44:18;;;;;;;13.07;8.05;;;;;;;;;;5053969;28;20859;-66
2022/05/25 05:46:46;;;;;;;13.05;8.05;;;;;;;;;;5060462;28;20146;-66
2022/05/25 05:49:13;;;;;;;11.00;7.95;;;;;;;;;;5056184;28;20045;-68
2022/05/25 05:51:39;;;;;;;13.25;7.97;;;;;;;;;;5053677;28;20067;-66
2022/05/25 05:54:06;;;;;;;11.25;7.60;;;;;;;;;;5051393;28;20633;-66
2022/05/25 05:56:33;;;;;;;15.85;8.40;;;;;;;;;;5062411;28;20051;-66
2022/05/25 05:59:00;;;;;;;13.65;8.55;;;;;;;;;;5064274;28;20390;-66
2022/05/25 06:01:26;;;;;;;18.00;9.20;;;;;;;;;;5057430;28;20158;-65
2022/05/25 06:03:53;;;;;;;12.68;8.35;;;;;;;;;;5060610;28;20048;-65
2022/05/25 06:06:20;;;;;;;15.55;8.35;;;;;;;;;;5048262;28;20155;-66
2022/05/25 06:08:46;;;;;;;14.68;8.63;;;;;;;;;;5057659;28;20049;-66
2022/05/25 06:11:16;;;;;;;12.85;8.40;;;;;;;;;;5054763;28;20139;-65
2022/05/25 06:13:43;;;;;;;11.98;8.23;;;;;;;;;;5064739;28;20052;-65
2022/05/25 06:21:58;;;;;;;11.93;7.25;;;;;;;;;;5033128;28;20053;-66
2022/05/25 06:24:24;;;;;;;13.85;7.35;;;;;;;;;;5055935;28;20080;-66
2022/05/25 06:26:51;;;;;;;11.65;7.20;;;;;;;;;;5059227;28;20048;-65
2022/05/25 06:29:19;;;;;;;15.68;7.30;;;;;;;;;;5058388;28;20885;-65
2022/05/25 06:31:45;;;;;;;17.67;6.82;;;;;;;;;;5061801;28;20084;-67
2022/05/25 06:34:11;;;;;;;14.82;7.50;;;;;;;;;;5051651;28;20509;-66
2022/05/25 06:36:38;;;;;;;16.58;8.38;;;;;;;;;;5045572;28;20045;-69
2022/05/25 06:39:04;;;;;;;11.82;7.28;;;;;;;;;;5060654;28;20711;-68
2022/05/25 06:41:31;;;;;;;13.15;7.55;;;;;;;;;;5056882;28;20099;-66
2022/05/25 06:43:57;;;;;;;17.50;7.90;;;;;;;;;;5055590;28;20493;-66
2022/05/25 06:46:24;;;;;;;12.48;7.47;;;;;;;;;;5053450;28;20126;-65
2022/05/25 06:48:55;;;;;;;12.48;7.70;;;;;;;;;;5049512;28;20439;-66
2022/05/25 06:51:23;;;;;;;14.88;7.18;;;;;;;;;;5057458;28;20063;-65
2022/05/25 06:53:50;;;;;;;15.18;7.45;;;;;;;;;;5063728;28;20473;-65
2022/05/25 06:56:17;;;;;;;12.32;7.05;;;;;;;;;;5064580;28;20052;-65
2022/05/25 06:58:43;;;;;;;13.38;7.00;;;;;;;;;;5058368;28;20739;-65
2022/05/25 07:01:10;;;;;;;12.20;7.25;;;;;;;;;;5061657;28;20048;-66
2022/05/25 07:03:38;;;;;;;13.35;7.82;;;;;;;;;;5055440;28;20052;-65
2022/05/25 07:06:05;;;;;;;9.93;7.03;;;;;;;;;;5064472;28;20064;-65
2022/05/25 07:08:32;;;;;;;12.43;7.68;;;;;;;;;;5057327;28;20086;-65
2022/05/25 07:10:58;;;;;;;12.25;6.57;;;;;;;;;;5062945;28;20139;-66
2022/05/25 07:13:25;;;;;;;10.82;6.97;;;;;;;;;;5062841;28;20082;-65
2022/05/25 07:15:55;;;;;;;12.55;7.22;;;;;;;;;;5058348;28;20102;-64
2022/05/25 07:18:22;;;;;;;11.60;6.85;;;;;;;;;;5064227;28;20220;-64
2022/05/25 07:20:49;;;;;;;12.25;7.05;;;;;;;;;;5057964;28;20114;-66
2022/05/25 07:23:15;;;;;;;11.73;7.32;;;;;;;;;;5044339;28;20055;-65
2022/05/25 07:25:42;;;;;;;12.43;6.90;;;;;;;;;;5065640;28;20044;-65
2022/05/25 07:28:08;;;;;;;15.27;6.97;;;;;;;;;;5079433;28;20044;-65
2022/05/25 07:30:35;;;;;;;7.82;5.63;;;;;;;;;;5083031;28;20123;-65
2022/05/25 07:33:01;;;;;;;14.95;6.57;;;;;;;;;;5076744;28;20048;-65
2022/05/25 07:35:28;;;;;;;9.82;5.70;;;;;;;;;;5074269;28;20789;-65
2022/05/25 07:37:55;;;;;;;9.68;6.50;;;;;;;;;;5039096;28;20508;-64
2022/05/25 07:40:25;;;;;;;13.07;6.57;;;;;;;;;;5055650;28;20095;-66
2022/05/25 07:42:56;;;;;;;10.80;5.60;;;;;;;;;;5062233;28;20106;-66
2022/05/25 07:45:23;;;;;;;10.27;6.15;;;;;;;;;;5061806;28;20107;-65
2022/05/25 07:47:51;;;;;;;11.50;6.68;;;;;;;;;;5061983;28;20102;-65
2022/05/25 07:50:17;;;;;;;12.50;6.20;;;;;;;;;;5057888;28;20564;-65
2022/05/25 07:52:44;;;;;;;11.32;6.03;;;;;;;;;;5058172;28;20626;-65
2022/05/25 07:55:11;;;;;;;15.80;6.80;;;;;;;;;;5052398;28;20084;-66
2022/05/25 07:57:38;;;;;;;10.80;5.90;;;;;;;;;;5061819;28;20047;-66
2022/05/25 08:00:06;;;;;;;8.73;6.35;;;;;;;;;;5057036;28;20151;-66
2022/05/25 08:05:44;;;;;;;15.88;9.00;;;;;;;;;;5059333;28;20118;-65
2022/05/25 08:08:13;;;;;;;12.30;7.40;;;;;;;;;;5055376;28;20131;-65
2022/05/25 08:10:40;;;;;;;14.65;8.02;;;;;;;;;;5073052;28;20134;-66
2022/05/25 08:13:06;;;;;;;12.63;8.15;;;;;;;;;;5055557;28;20139;-65
2022/05/25 08:15:33;;;;;;;12.05;7.25;;;;;;;;;;5061631;28;20192;-65
2022/05/25 08:18:00;;;;;;;11.93;7.82;;;;;;;;;;5056239;28;20076;-65
2022/05/25 08:20:29;;;;;;;10.73;7.82;;;;;;;;;;5068881;28;20129;-66
2022/05/25 08:22:56;;;;;;;11.48;7.70;;;;;;;;;;5034865;28;20186;-67
2022/05/25 08:25:22;;;;;;;12.55;8.10;;;;;;;;;;5061485;28;20059;-66
2022/05/25 08:27:49;;;;;;;11.55;7.90;;;;;;;;;;5049488;28;20155;-65
2022/05/25 08:30:17;;;;;;;12.00;8.57;;;;;;;;;;5059323;28;20488;-66
2022/05/25 08:32:43;;;;;;;;;;;;;;;;;;5071103;28;20055;-66
2022/05/25 08:35:10;;;;;;;10.93;7.30;;;;;;;;;;5054608;28;21489;-66
2022/05/25 08:37:37;;;;;;;13.10;9.27;;;;;;;;;;5062644;28;20056;-66
2022/05/25 08:40:04;;;;;;;16.05;8.43;;;;;;;;;;5067857;28;20055;-65
2022/05/25 08:42:32;;;;;;;10.73;8.20;;;;;;;;;;5063650;28;20473;-65
2022/05/25 08:44:59;;;;;;;10.18;7.85;;;;;;;;;;5062069;28;20106;-66
2022/05/25 08:47:26;;;;;;;10.82;8.35;;;;;;;;;;5060980;28;20040;-66
2022/05/25 08:49:55;;;;;;;9.90;8.30;;;;;;;;;;5055721;28;20052;-65
2022/05/25 08:52:24;;;;;;;10.70;8.40;;;;;;;;;;5051744;28;20107;-66
2022/05/25 08:54:51;;;;;;;10.32;7.78;;;;;;;;;;5058474;28;20542;-66
2022/05/25 08:57:43;;;;;;;10.35;8.55;;;;;;;;;;5054488;28;20790;-65
2022/05/25 09:00:16;;;;;;;9.77;8.23;;;;;;;;;;5061893;28;20094;-66
2022/05/25 09:02:43;;;;;;;12.45;9.40;;;;;;;;;;5062933;28;20131;-66
2022/05/25 09:05:16;;;;;;;12.10;8.55;;;;;;;;;;5057166;28;20386;-66
2022/05/25 09:07:42;;;;;;;11.27;7.97;;;;;;;;;;5059165;28;20677;-66
2022/05/25 09:10:10;;;;;;;12.90;7.30;;;;;;;;;;5056278;28;20059;-65
2022/05/25 09:12:39;;;;;;;9.77;7.75;;;;;;;;;;5060212;28;20122;-66
2022/05/25 09:15:05;;;;;;;;;;;;;;;;;;5055887;28;20139;-65
2022/05/25 09:17:34;;;;;;;12.23;8.52;;;;;;;;;;5057770;28;19952;-65
2022/05/25 09:20:01;;;;;;;10.18;7.80;;;;;;;;;;5050687;28;20052;-66
2022/05/25 09:22:32;;;;;;;10.18;7.38;;;;;;;;;;5060122;28;20556;-65
2022/05/25 09:25:00;;;;;;;10.38;9.27;;;;;;;;;;5063310;28;20160;-66
2022/05/25 09:27:33;;;;;;;11.00;8.55;;;;;;;;;;5053900;28;20141;-66
2022/05/25 09:30:01;;;;;;;11.85;8.65;;;;;;;;;;5059713;28;20562;-65
2022/05/25 09:32:40;;;;;;;8.90;7.32;;;;;;;;;;5049129;28;20052;-66
2022/05/25 09:35:14;;;;;;;11.55;8.68;;;;;;;;;;5061384;28;20048;-66
2022/05/25 09:38:13;;;;;;;12.38;10.18;;;;;;;;;;5055969;28;20612;-66
2022/05/25 09:40:49;;;;;;;13.93;12.48;;;;;;;;;;5016044;28;20048;-66
2022/05/25 09:43:21;;;;;;;16.55;13.18;;;;;;;;;;5063595;28;20864;-66
2022/05/25 09:45:49;;;;;;;18.33;15.32;;;;;;;;;;5054694;28;20489;-66
2022/05/25 09:48:27;;;;;;;19.15;17.17;;;;;;;;;;5051980;28;20131;-66
2022/05/25 09:50:59;;;;;;;18.25;16.27;;;;;;;;;;5059530;28;20054;-66
2022/05/25 09:53:33;;;;;;;22.15;17.80;;;;;;;;;;5060635;28;20072;-66
2022/05/25 09:56:12;;;;;;;18.55;16.50;;;;;;;;;;5054584;28;20102;-66
2022/05/25 09:58:42;;;;;;;21.33;18.33;;;;;;;;;;5056057;28;20084;-64
2022/05/25 10:01:17;;;;;;;16.15;14.43;;;;;;;;;;5050870;28;20094;-65
2022/05/25 10:03:44;;;;;;;16.77;14.10;;;;;;;;;;5060302;28;20049;-65
2022/05/25 10:06:29;;;;;;;17.70;14.25;;;;;;;;;;5055302;28;20044;-66
2022/05/25 10:09:07;;;;;;;17.75;15.90;;;;;;;;;;5064573;28;20049;-66
2022/05/25 10:11:35;;;;;;;;;;;;;;;;;;5039978;28;20111;-67
2022/05/25 10:14:21;;;;;;;19.73;14.90;;;;;;;;;;5051039;28;20549;-66
2022/05/25 10:16:49;;;;;;;14.55;13.02;;;;;;;;;;5057529;28;20056;-66
2022/05/25 10:19:17;;;;;;;19.10;12.98;;;;;;;;;;5063593;28;20048;-66
2022/05/25 10:21:46;;;;;;;14.90;13.43;;;;;;;;;;5063808;28;20051;-65
2022/05/25 10:24:15;;;;;;;14.50;12.65;;;;;;;;;;5057840;28;20139;-65
2022/05/25 10:26:47;;;;;;;15.48;13.88;;;;;;;;;;5056468;28;20075;-65
2022/05/25 10:36:45;;;;;;;14.32;12.77;;;;;;;;;;5054238;28;20435;-65
2022/05/25 10:37:54;;;;;;;11.50;8.75;;;;;;;;;;5043968;28;20052;-65
2022/05/25 10:40:24;;;;;;;11.88;7.60;;;;;;;;;;5032830;28;20513;-65
2022/05/25 10:42:56;;;;;;;10.98;8.23;;;;;;;;;;5038785;28;20051;-65
2022/05/25 10:45:28;;;;;;;8.93;8.02;;;;;;;;;;5053400;28;20056;-66
2022/05/25 10:48:07;;;;;;;8.75;7.82;;;;;;;;;;5063045;28;20139;-65
2022/05/25 10:50:43;;;;;;;9.35;7.63;;;;;;;;;;5063416;28;20106;-66
2022/05/25 10:53:29;;;;;;;9.25;7.57;;;;;;;;;;5062316;28;20607;-65
2022/05/25 10:55:59;;;;;;;12.23;7.47;;;;;;;;;;5057283;28;20427;-65
2022/05/25 10:58:35;;;;;;;7.25;5.75;;;;;;;;;;5053417;28;20202;-65
2022/05/25 11:01:20;;;;;;;5.82;5.07;;;;;;;;;;5073022;28;20091;-65
2022/05/25 11:04:06;;;;;;;7.53;5.03;;;;;;;;;;5056241;28;20067;-65
2022/05/25 11:07:08;;;;;;;6.78;6.00;;;;;;;;;;5062860;28;20052;-64
2022/05/25 11:09:53;;;;;;;10.10;6.95;;;;;;;;;;4989237;28;20153;-64
2022/05/25 11:12:19;;;;;;;8.32;7.03;;;;;;;;;;4996293;28;20125;-65
2022/05/25 11:14:49;;;;;;;7.35;5.90;;;;;;;;;;4994100;28;21095;-65
2022/05/25 11:17:35;;;;;;;8.32;6.18;;;;;;;;;;5000160;28;20589;-65
2022/05/25 11:20:08;;;;;;;9.40;7.03;;;;;;;;;;4993342;28;20596;-65
2022/05/25 11:22:34;;;;;;;8.77;5.93;;;;;;;;;;4997363;28;20049;-66
2022/05/25 11:25:19;;;;;;;7.03;4.07;;;;;;;;;;4999949;28;20081;-66
2022/05/25 11:28:04;;;;;;;6.72;3.00;;;;;;;;;;4996898;28;20045;-65
2022/05/25 11:30:36;;;;;;;7.75;2.60;;;;;;;;;;4980081;28;20062;-65
2022/05/25 11:33:25;;;;;;;9.30;5.57;;;;;;;;;;4990075;28;20056;-69
2022/05/25 11:36:19;;;;;;;5.97;3.25;;;;;;;;;;4995439;28;20049;-65
2022/05/25 11:38:47;;;;;;;6.43;3.33;;;;;;;;;;4991940;28;20065;-65
2022/05/25 11:41:36;;;;;;;4.93;3.73;;;;;;;;;;4998276;28;20095;-66
2022/05/25 11:44:22;;;;;;;6.40;3.47;;;;;;;;;;5026112;28;20126;-65
2022/05/25 11:46:50;;;;;;;6.07;3.40;;;;;;;;;;5030202;28;20044;-65
2022/05/25 11:49:47;;;;;;;5.13;3.72;;;;;;;;;;5049321;28;20298;-66
2022/05/25 11:52:14;;;;;;;5.70;2.92;;;;;;;;;;5062566;28;20461;-67
2022/05/25 11:55:15;;;;;;;4.90;3.15;;;;;;;;;;5055867;28;20144;-66
2022/05/25 11:57:44;;;;;;;3.83;2.53;;;;;;;;;;4979627;28;20514;-66
2022/05/25 12:00:20;;;;;;;6.47;2.50;;;;;;;;;;4994028;28;20199;-66
2022/05/25 12:02:58;;;;;;;4.68;2.35;;;;;;;;;;4995177;28;20041;-66
2022/05/25 12:05:29;;;;;;;4.03;3.10;;;;;;;;;;4994337;28;20068;-66
2022/05/25 12:08:03;;;;;;;6.03;2.50;;;;;;;;;;4994896;28;20520;-65
2022/05/25 12:10:30;;;;;;;4.78;3.10;;;;;;;;;;4998532;28;20637;-67
2022/05/25 12:12:59;;;;;;;9.82;3.88;;;;;;;;;;4993313;28;20550;-66
2022/05/25 12:15:29;;;;;;;5.93;3.50;;;;;;;;;;4998080;28;20755;-66
2022/05/25 12:18:14;;;;;;;4.15;2.83;;;;;;;;;;4986897;28;20681;-66
2022/05/25 12:20:45;;;;;;;8.15;3.78;;;;;;;;;;4998982;28;20053;-66
2022/05/25 12:23:21;;;;;;;6.75;2.80;;;;;;;;;;4994103;28;20133;-65
2022/05/25 12:25:51;;;;;;;2.92;2.40;;;;;;;;;;4998037;28;20053;-66
2022/05/25 12:28:18;;;;;;;2.47;2.10;;;;;;;;;;4998530;28;20129;-65
2022/05/25 12:30:47;;;;;;;3.92;2.60;;;;;;;;;;5004222;28;20060;-65
2022/05/25 12:33:21;;;;;;;4.30;2.50;;;;;;;;;;5059001;28;20610;-66
2022/05/25 12:35:49;;;;;;;4.22;2.05;;;;;;;;;;5044576;28;20098;-66
2022/05/25 12:38:16;;;;;;;3.33;2.30;;;;;;;;;;5061303;28;20140;-65
2022/05/25 12:40:44;;;;;;;5.88;2.20;;;;;;;;;;5053734;28;20738;-66
2022/05/25 12:43:29;;;;;;;4.60;2.10;;;;;;;;;;5061378;28;20127;-66
2022/05/25 12:48:57;;;;;;;6.78;2.17;;;;;;;;;;5061074;28;20044;-65
2022/05/25 12:51:29;;;;;;;3.45;1.52;;;;;;;;;;5062300;28;20148;-66
2022/05/25 12:53:57;;;;;;;4.25;1.77;;;;;;;;;;5058069;28;20103;-65
2022/05/25 12:56:23;;;;;;;2.70;1.70;;;;;;;;;;5071945;28;20056;-66
2022/05/25 12:58:56;;;;;;;2.92;1.42;;;;;;;;;;5047646;28;20114;-65
2022/05/25 13:01:26;;;;;;;3.60;1.60;;;;;;;;;;5060080;28;20059;-65
2022/05/25 13:03:55;;;;;;;5.45;1.80;;;;;;;;;;5060518;28;20083;-65
2022/05/25 13:06:35;;;;;;;6.57;1.80;;;;;;;;;;5061430;28;20044;-65
2022/05/25 13:09:03;;;;;;;7.45;1.73;;;;;;;;;;5067301;28;20048;-64
2022/05/25 13:11:37;;;;;;;5.85;1.70;;;;;;;;;;5055668;28;20765;-64
2022/05/25 13:14:09;;;;;;;5.53;1.60;;;;;;;;;;5056733;28;20053;-65
2022/05/25 13:16:45;;;;;;;3.83;1.50;;;;;;;;;;5069849;28;20044;-65
2022/05/25 13:19:13;;;;;;;3.17;1.52;;;;;;;;;;5072625;28;20568;-66
2022/05/25 13:21:41;;;;;;;4.32;1.50;;;;;;;;;;5061068;28;20123;-65
2022/05/25 13:24:19;;;;;;;3.08;1.40;;;;;;;;;;5042563;28;20049;-66
2022/05/25 13:27:08;;;;;;;2.95;1.23;;;;;;;;;;5038991;28;20048;-66
2022/05/25 13:29:35;;;;;;;3.88;1.40;;;;;;;;;;5042077;28;20533;-64
2022/05/25 13:32:08;;;;;;;2.70;1.40;;;;;;;;;;5054509;28;20076;-65
2022/05/25 13:34:34;;;;;;;4.30;1.50;;;;;;;;;;5059917;28;20505;-65
2022/05/25 13:37:04;;;;;;;3.33;1.35;;;;;;;;;;5036895;28;20086;-65
2022/05/25 13:39:31;;;;;;;5.07;1.50;;;;;;;;;;5055137;28;20572;-64
2022/05/25 13:42:04;;;;;;;5.38;2.00;;;;;;;;;;5047523;28;20059;-64
2022/05/25 13:44:49;;;;;;;6.18;1.70;;;;;;;;;;5058763;28;20083;-64
2022/05/25 13:47:19;;;;;;;2.50;1.45;;;;;;;;;;5064738;28;20052;-65
2022/05/25 13:49:50;;;;;;;4.18;1.80;;;;;;;;;;5058945;28;20063;-65
2022/05/25 13:52:27;;;;;;;2.38;1.50;;;;;;;;;;5065698;28;20400;-65
2022/05/25 13:54:53;;;;;;;3.85;1.50;;;;;;;;;;5050986;28;20091;-65
2022/05/25 13:57:20;;;;;;;6.30;1.50;;;;;;;;;;5065114;28;20138;-65
2022/05/25 13:59:47;;;;;;;3.50;1.60;;;;;;;;;;5046742;28;20372;-65
2022/05/25 14:02:14;;;;;;;4.10;1.50;;;;;;;;;;5057689;28;20092;-65
2022/05/25 14:04:40;;;;;;;7.88;1.70;;;;;;;;;;5064978;28;20075;-65
2022/05/25 14:07:07;;;;;;;3.50;1.27;;;;;;;;;;5055631;28;20048;-64
2022/05/25 14:12:19;;;;;;;3.20;1.83;;;;;;;;;;5059913;28;20045;-65
2022/05/25 14:14:51;;;;;;;2.88;1.80;;;;;;;;;;5064705;28;20056;-66
2022/05/25 14:17:24;;;;;;;5.60;1.67;;;;;;;;;;5066806;28;20048;-65
2022/05/25 14:19:52;;;;;;;2.67;1.30;;;;;;;;;;5084301;28;20579;-65
2022/05/25 14:22:21;;;;;;;6.22;1.85;;;;;;;;;;5080429;28;20048;-66
2022/05/25 14:24:51;;;;;;;1.95;1.27;;;;;;;;;;5064713;28;20076;-66
2022/05/25 14:27:35;;;;;;;3.78;1.50;;;;;;;;;;5064857;28;20040;-63
2022/05/25 14:30:14;;;;;;;3.08;1.40;;;;;;;;;;5058364;28;20067;-66
2022/05/25 14:32:41;;;;;;;3.85;1.45;;;;;;;;;;5064430;28;20044;-65
2022/05/25 14:35:13;;;;;;;3.88;1.50;;;;;;;;;;5049324;28;20509;-65
2022/05/25 14:37:41;;;;;;;5.25;1.60;;;;;;;;;;5051086;28;20092;-65
2022/05/25 14:40:09;;;;;;;4.22;1.40;;;;;;;;;;5059028;28;20053;-65
2022/05/25 14:42:52;;;;;;;4.32;1.63;;;;;;;;;;5061795;28;20083;-65
2022/05/25 14:45:19;;;;;;;3.33;1.50;;;;;;;;;;5064468;28;20071;-64
2022/05/25 14:47:53;;;;;;;3.08;1.33;;;;;;;;;;5057427;28;20049;-64
2022/05/25 14:50:31;;;;;;;5.10;1.40;;;;;;;;;;5047432;28;20059;-65
2022/05/25 14:53:03;;;;;;;2.50;1.50;;;;;;;;;;5056446;28;20497;-65
2022/05/25 14:55:29;;;;;;;3.80;1.60;;;;;;;;;;5064360;28;20055;-65
2022/05/25 14:58:15;;;;;;;2.88;1.50;;;;;;;;;;5058529;28;20131;-66
2022/05/25 15:00:43;;;;;;;1.95;1.40;;;;;;;;;;5062808;28;20123;-65
2022/05/25 15:03:09;;;;;;;;;;;;;;;;;;5054796;28;20560;-65
2022/05/25 15:05:36;;;;;;;3.47;1.58;;;;;;;;;;5058383;28;19924;-65
2022/05/25 15:08:02;;;;;;;2.83;1.40;;;;;;;;;;5063550;28;20137;-65
2022/05/25 15:10:30;;;;;;;4.05;1.42;;;;;;;;;;5056954;28;20052;-65
2022/05/25 15:12:57;;;;;;;;;;;;;;;;;;5064356;28;20083;-64
2022/05/25 15:18:30;;;;;;;4.00;1.10;;;;;;;;;;5062954;28;20139;-65
2022/05/25 15:20:59;;;;;;;3.08;1.20;;;;;;;;;;5065549;28;20058;-66